sensor_id;sensor_type;location;lat;lon;timestamp;pressure;altitude;pressure_sealevel;temperature;humidity
63399;BME280;49533;-34.520;150.798;2023-05-25T00:00:41;100794.75;;;15.63;37.40
63399;BME280;49533;-34.520;150.798;2023-05-25T00:03:08;100848.25;;;15.90;37.49
63399;BME280;49533;-34.520;150.798;2023-05-25T00:05:35;100851.03;;;16.02;37.36
63399;BME280;49533;-34.520;150.798;2023-05-25T00:08:03;100862.19;;;16.18;37.59
63399;BME280;49533;-34.520;150.798;2023-05-25T00:10:30;100736.31;;;15.38;37.74
63399;BME280;49533;-34.520;150.798;2023-05-25T00:12:57;100859.78;;;16.17;37.97
63399;BME280;49533;-34.520;150.798;2023-05-25T00:15:24;100854.81;;;16.10;37.92
63399;BME280;49533;-34.520;150.798;2023-05-25T00:17:52;100792.25;;;15.79;37.39
63399;BME280;49533;-34.520;150.798;2023-05-25T00:20:20;100844.34;;;16.12;37.33
63399;BME280;49533;-34.520;150.798;2023-05-25T00:22:47;100843.13;;;16.22;37.16
63399;BME280;49533;-34.520;150.798;2023-05-25T00:25:14;100804.78;;;16.01;37.16
63399;BME280;49533;-34.520;150.798;2023-05-25T00:27:41;100839.13;;;16.19;37.44
63399;BME280;49533;-34.520;150.798;2023-05-25T00:30:08;100836.03;;;16.21;37.42
63399;BME280;49533;-34.520;150.798;2023-05-25T00:32:36;100814.53;;;16.11;37.09
63399;BME280;49533;-34.520;150.798;2023-05-25T00:35:03;100821.31;;;16.25;36.90
63399;BME280;49533;-34.520;150.798;2023-05-25T00:37:30;100735.38;;;15.76;36.82
63399;BME280;49533;-34.520;150.798;2023-05-25T00:39:57;100804.06;;;16.25;36.45
63399;BME280;49533;-34.520;150.798;2023-05-25T00:42:24;100774.31;;;16.15;36.65
63399;BME280;49533;-34.520;150.798;2023-05-25T00:44:53;100751.03;;;16.08;36.71
63399;BME280;49533;-34.520;150.798;2023-05-25T00:47:20;100779.84;;;16.27;36.88
63399;BME280;49533;-34.520;150.798;2023-05-25T00:49:49;100771.28;;;16.28;37.31
63399;BME280;49533;-34.520;150.798;2023-05-25T00:52:16;100763.88;;;16.29;37.29
63399;BME280;49533;-34.520;150.798;2023-05-25T00:54:44;100767.41;;;16.29;37.28
63399;BME280;49533;-34.520;150.798;2023-05-25T00:57:14;100713.88;;;15.99;37.63
63399;BME280;49533;-34.520;150.798;2023-05-25T00:59:48;100684.06;;;15.85;37.15
63399;BME280;49533;-34.520;150.798;2023-05-25T01:02:18;100708.50;;;16.02;37.47
63399;BME280;49533;-34.520;150.798;2023-05-25T01:04:50;100631.69;;;15.65;37.91
63399;BME280;49533;-34.520;150.798;2023-05-25T01:07:21;100715.75;;;16.19;37.47
63399;BME280;49533;-34.520;150.798;2023-05-25T01:09:57;100716.56;;;16.32;37.61
63399;BME280;49533;-34.520;150.798;2023-05-25T01:12:27;100700.09;;;16.20;37.59
63399;BME280;49533;-34.520;150.798;2023-05-25T01:14:56;100705.59;;;16.32;37.77
63399;BME280;49533;-34.520;150.798;2023-05-25T01:17:24;100704.91;;;16.35;37.74
63399;BME280;49533;-34.520;150.798;2023-05-25T01:19:54;100642.09;;;16.05;37.83
63399;BME280;49533;-34.520;150.798;2023-05-25T01:22:27;100677.97;;;16.37;37.73
63399;BME280;49533;-34.520;150.798;2023-05-25T01:25:02;100580.19;;;15.80;37.82
63399;BME280;49533;-34.520;150.798;2023-05-25T01:27:50;100552.06;;;15.71;37.87
63399;BME280;49533;-34.520;150.798;2023-05-25T01:30:24;100618.56;;;16.17;38.23
63399;BME280;49533;-34.520;150.798;2023-05-25T01:32:53;100625.84;;;16.25;38.36
63399;BME280;49533;-34.520;150.798;2023-05-25T01:35:21;100636.13;;;16.40;38.25
63399;BME280;49533;-34.520;150.798;2023-05-25T01:37:51;100611.47;;;16.28;38.24
63399;BME280;49533;-34.520;150.798;2023-05-25T01:40:18;100618.56;;;16.29;38.46
63399;BME280;49533;-34.520;150.798;2023-05-25T01:42:45;100631.56;;;16.44;38.46
63399;BME280;49533;-34.520;150.798;2023-05-25T01:45:13;100550.72;;;16.01;38.52
63399;BME280;49533;-34.520;150.798;2023-05-25T01:48:14;100614.66;;;16.42;38.66
63399;BME280;49533;-34.520;150.798;2023-05-25T01:50:57;100612.38;;;16.44;38.90
63399;BME280;49533;-34.520;150.798;2023-05-25T01:53:30;100574.91;;;16.36;38.96
63399;BME280;49533;-34.520;150.798;2023-05-25T01:56:02;100561.84;;;16.45;38.86
63399;BME280;49533;-34.520;150.798;2023-05-25T01:58:38;100545.31;;;16.29;39.00
63399;BME280;49533;-34.520;150.798;2023-05-25T02:01:08;100539.38;;;16.40;39.28
63399;BME280;49533;-34.520;150.798;2023-05-25T02:03:37;100560.03;;;16.49;39.56
63399;BME280;49533;-34.520;150.798;2023-05-25T02:06:06;100527.59;;;16.51;39.36
63399;BME280;49533;-34.520;150.798;2023-05-25T02:08:34;100495.81;;;16.38;39.41
63399;BME280;49533;-34.520;150.798;2023-05-25T02:11:01;100528.84;;;16.54;39.53
63399;BME280;49533;-34.520;150.798;2023-05-25T02:13:28;100492.91;;;16.31;39.54
63399;BME280;49533;-34.520;150.798;2023-05-25T02:15:55;100468.00;;;16.24;39.60
63399;BME280;49533;-34.520;150.798;2023-05-25T02:18:23;100484.09;;;16.25;39.71
63399;BME280;49533;-34.520;150.798;2023-05-25T02:20:50;100445.06;;;16.16;39.88
63399;BME280;49533;-34.520;150.798;2023-05-25T02:23:17;100516.38;;;16.57;39.85
63399;BME280;49533;-34.520;150.798;2023-05-25T02:25:44;100515.22;;;16.58;39.84
63399;BME280;49533;-34.520;150.798;2023-05-25T02:28:11;100490.56;;;16.45;39.85
63399;BME280;49533;-34.520;150.798;2023-05-25T02:30:38;100498.84;;;16.61;39.88
63399;BME280;49533;-34.520;150.798;2023-05-25T02:33:06;100507.44;;;16.60;39.91
63399;BME280;49533;-34.520;150.798;2023-05-25T02:35:33;100481.13;;;16.59;40.03
63399;BME280;49533;-34.520;150.798;2023-05-25T02:38:00;100485.59;;;16.63;40.13
63399;BME280;49533;-34.520;150.798;2023-05-25T02:40:27;100465.59;;;16.63;40.71
63399;BME280;49533;-34.520;150.798;2023-05-25T02:42:54;100473.47;;;16.64;40.80
63399;BME280;49533;-34.520;150.798;2023-05-25T02:45:21;100455.88;;;16.65;40.67
63399;BME280;49533;-34.520;150.798;2023-05-25T02:47:48;100449.59;;;16.65;40.39
63399;BME280;49533;-34.520;150.798;2023-05-25T02:50:15;100402.44;;;16.31;40.66
63399;BME280;49533;-34.520;150.798;2023-05-25T02:52:42;100398.69;;;16.23;40.62
63399;BME280;49533;-34.520;150.798;2023-05-25T02:55:09;100379.25;;;16.28;40.18
63399;BME280;49533;-34.520;150.798;2023-05-25T02:57:38;100418.38;;;16.41;40.20
63399;BME280;49533;-34.520;150.798;2023-05-25T03:00:06;100412.78;;;16.38;40.15
63399;BME280;49533;-34.520;150.798;2023-05-25T03:02:33;100435.66;;;16.58;40.32
63399;BME280;49533;-34.520;150.798;2023-05-25T03:05:00;100424.25;;;16.56;40.21
63399;BME280;49533;-34.520;150.798;2023-05-25T03:07:27;100442.69;;;16.71;40.39
63399;BME280;49533;-34.520;150.798;2023-05-25T03:09:55;100437.19;;;16.71;40.43
63399;BME280;49533;-34.520;150.798;2023-05-25T03:12:22;100425.09;;;16.72;40.27
63399;BME280;49533;-34.520;150.798;2023-05-25T03:14:49;100409.44;;;16.44;40.16
63399;BME280;49533;-34.520;150.798;2023-05-25T03:17:17;100370.91;;;16.25;40.12
63399;BME280;49533;-34.520;150.798;2023-05-25T03:19:44;100430.72;;;16.63;40.24
63399;BME280;49533;-34.520;150.798;2023-05-25T03:22:11;100432.63;;;16.75;40.39
63399;BME280;49533;-34.520;150.798;2023-05-25T03:24:38;100368.81;;;16.34;40.26
63399;BME280;49533;-34.520;150.798;2023-05-25T03:27:07;100404.00;;;16.60;40.88
63399;BME280;49533;-34.520;150.798;2023-05-25T03:29:34;100394.31;;;16.50;41.13
63399;BME280;49533;-34.520;150.798;2023-05-25T03:32:01;100419.69;;;16.76;40.54
63399;BME280;49533;-34.520;150.798;2023-05-25T03:34:28;100318.81;;;16.25;40.51
63399;BME280;49533;-34.520;150.798;2023-05-25T03:36:55;100267.47;;;15.94;40.59
63399;BME280;49533;-34.520;150.798;2023-05-25T03:39:23;100405.31;;;16.79;40.62
63399;BME280;49533;-34.520;150.798;2023-05-25T03:41:50;100387.34;;;16.81;40.50
63399;BME280;49533;-34.520;150.798;2023-05-25T03:44:17;100381.41;;;16.79;40.71
63399;BME280;49533;-34.520;150.798;2023-05-25T03:46:44;100366.13;;;16.66;40.30
63399;BME280;49533;-34.520;150.798;2023-05-25T03:49:11;100380.50;;;16.75;40.82
63399;BME280;49533;-34.520;150.798;2023-05-25T03:51:40;100381.97;;;16.85;40.78
63399;BME280;49533;-34.520;150.798;2023-05-25T03:54:07;100319.47;;;16.34;40.51
63399;BME280;49533;-34.520;150.798;2023-05-25T03:56:34;100356.84;;;16.55;40.62
63399;BME280;49533;-34.520;150.798;2023-05-25T03:59:01;100388.94;;;16.82;40.43
63399;BME280;49533;-34.520;150.798;2023-05-25T04:01:28;100347.91;;;16.58;40.38
63399;BME280;49533;-34.520;150.798;2023-05-25T04:03:55;100388.25;;;16.85;40.35
63399;BME280;49533;-34.520;150.798;2023-05-25T04:06:23;100377.63;;;16.71;40.04
63399;BME280;49533;-34.520;150.798;2023-05-25T04:08:51;100337.69;;;16.42;40.35
63399;BME280;49533;-34.520;150.798;2023-05-25T04:11:19;100396.91;;;16.87;40.26
63399;BME280;49533;-34.520;150.798;2023-05-25T04:13:47;100395.69;;;16.85;40.17
63399;BME280;49533;-34.520;150.798;2023-05-25T04:16:15;100359.84;;;16.65;40.30
63399;BME280;49533;-34.520;150.798;2023-05-25T04:18:42;100343.13;;;16.55;40.23
63399;BME280;49533;-34.520;150.798;2023-05-25T04:21:09;100389.47;;;16.88;40.03
63399;BME280;49533;-34.520;150.798;2023-05-25T04:23:36;100376.56;;;16.88;40.24
63399;BME280;49533;-34.520;150.798;2023-05-25T04:26:03;100331.00;;;16.56;40.16
63399;BME280;49533;-34.520;150.798;2023-05-25T04:28:31;100343.41;;;16.65;39.99
63399;BME280;49533;-34.520;150.798;2023-05-25T04:30:58;100371.31;;;16.83;40.34
63399;BME280;49533;-34.520;150.798;2023-05-25T04:33:25;100334.47;;;16.68;40.38
63399;BME280;49533;-34.520;150.798;2023-05-25T04:35:55;100371.97;;;16.92;40.27
63399;BME280;49533;-34.520;150.798;2023-05-25T04:38:25;100316.22;;;16.60;40.29
63399;BME280;49533;-34.520;150.798;2023-05-25T04:40:52;100312.84;;;16.51;40.26
63399;BME280;49533;-34.520;150.798;2023-05-25T04:43:19;100361.94;;;16.84;40.38
63399;BME280;49533;-34.520;150.798;2023-05-25T04:45:47;100390.00;;;16.93;40.45
63399;BME280;49533;-34.520;150.798;2023-05-25T04:48:16;100340.13;;;16.60;40.42
63399;BME280;49533;-34.520;150.798;2023-05-25T04:50:46;100335.78;;;16.59;40.44
63399;BME280;49533;-34.520;150.798;2023-05-25T04:53:13;100367.41;;;16.84;40.55
63399;BME280;49533;-34.520;150.798;2023-05-25T04:55:41;100326.50;;;16.63;40.55
63399;BME280;49533;-34.520;150.798;2023-05-25T04:58:08;100381.50;;;16.99;40.65
63399;BME280;49533;-34.520;150.798;2023-05-25T05:00:35;100342.19;;;16.79;40.36
63399;BME280;49533;-34.520;150.798;2023-05-25T05:03:05;100367.44;;;17.00;40.74
63399;BME280;49533;-34.520;150.798;2023-05-25T05:05:33;100361.97;;;17.00;40.63
63399;BME280;49533;-34.520;150.798;2023-05-25T05:08:01;100337.34;;;16.88;40.63
63399;BME280;49533;-34.520;150.798;2023-05-25T05:10:29;100357.00;;;17.06;40.67
63399;BME280;49533;-34.520;150.798;2023-05-25T05:12:56;100358.13;;;17.05;40.72
63399;BME280;49533;-34.520;150.798;2023-05-25T05:15:23;100285.59;;;16.58;40.99
63399;BME280;49533;-34.520;150.798;2023-05-25T05:17:52;100359.75;;;17.06;40.93
63399;BME280;49533;-34.520;150.798;2023-05-25T05:20:19;100345.03;;;16.98;40.75
63399;BME280;49533;-34.520;150.798;2023-05-25T05:22:46;100337.41;;;16.91;40.87
63399;BME280;49533;-34.520;150.798;2023-05-25T05:25:13;100312.69;;;16.76;40.92
63399;BME280;49533;-34.520;150.798;2023-05-25T05:27:40;100357.44;;;17.08;41.04
63399;BME280;49533;-34.520;150.798;2023-05-25T05:30:08;100333.16;;;16.94;40.89
63399;BME280;49533;-34.520;150.798;2023-05-25T05:32:35;100359.47;;;17.11;40.80
63399;BME280;49533;-34.520;150.798;2023-05-25T05:35:02;100355.13;;;16.94;41.09
63399;BME280;49533;-34.520;150.798;2023-05-25T05:37:30;100347.88;;;17.02;41.07
63399;BME280;49533;-34.520;150.798;2023-05-25T05:39:57;100334.50;;;17.00;41.19
63399;BME280;49533;-34.520;150.798;2023-05-25T05:42:24;100329.81;;;17.01;41.06
63399;BME280;49533;-34.520;150.798;2023-05-25T05:44:51;100356.00;;;17.14;41.12
63399;BME280;49533;-34.520;150.798;2023-05-25T05:47:19;100329.63;;;16.93;41.13
63399;BME280;49533;-34.520;150.798;2023-05-25T05:49:46;100354.84;;;17.15;41.11
63399;BME280;49533;-34.520;150.798;2023-05-25T05:52:13;100317.34;;;17.03;41.17
63399;BME280;49533;-34.520;150.798;2023-05-25T05:54:41;100342.34;;;17.17;41.08
63399;BME280;49533;-34.520;150.798;2023-05-25T05:57:08;100335.28;;;17.16;41.20
63399;BME280;49533;-34.520;150.798;2023-05-25T05:59:35;100311.47;;;17.05;41.19
63399;BME280;49533;-34.520;150.798;2023-05-25T06:02:02;100313.34;;;17.01;41.13
63399;BME280;49533;-34.520;150.798;2023-05-25T06:04:29;100338.81;;;17.17;41.20
63399;BME280;49533;-34.520;150.798;2023-05-25T06:06:56;100317.94;;;16.97;41.24
63399;BME280;49533;-34.520;150.798;2023-05-25T06:09:24;100339.59;;;17.17;41.39
63399;BME280;49533;-34.520;150.798;2023-05-25T06:11:52;100286.97;;;16.80;41.30
63399;BME280;49533;-34.520;150.798;2023-05-25T06:14:19;100345.09;;;17.17;41.41
63399;BME280;49533;-34.520;150.798;2023-05-25T06:16:46;100261.44;;;16.64;41.22
63399;BME280;49533;-34.520;150.798;2023-05-25T06:19:13;100335.22;;;17.13;41.33
63399;BME280;49533;-34.520;150.798;2023-05-25T06:21:41;100326.44;;;17.07;41.33
63399;BME280;49533;-34.520;150.798;2023-05-25T06:24:08;100346.78;;;17.22;41.27
63399;BME280;49533;-34.520;150.798;2023-05-25T06:26:35;100330.06;;;17.11;41.34
63399;BME280;49533;-34.520;150.798;2023-05-25T06:29:02;100340.16;;;17.23;41.34
63399;BME280;49533;-34.520;150.798;2023-05-25T06:31:29;100301.84;;;16.95;41.19
63399;BME280;49533;-34.520;150.798;2023-05-25T06:33:56;100330.41;;;17.26;41.19
63399;BME280;49533;-34.520;150.798;2023-05-25T06:36:23;100316.84;;;17.17;41.34
63399;BME280;49533;-34.520;150.798;2023-05-25T06:38:50;100333.94;;;17.26;41.29
63399;BME280;49533;-34.520;150.798;2023-05-25T06:41:17;100326.16;;;17.28;41.35
63399;BME280;49533;-34.520;150.798;2023-05-25T06:43:45;100341.81;;;17.28;42.08
63399;BME280;49533;-34.520;150.798;2023-05-25T06:46:12;100272.19;;;16.85;42.03
63399;BME280;49533;-34.520;150.798;2023-05-25T06:48:43;100341.47;;;17.29;41.96
63399;BME280;49533;-34.520;150.798;2023-05-25T06:51:11;100344.22;;;17.29;41.96
63399;BME280;49533;-34.520;150.798;2023-05-25T06:53:38;100330.75;;;17.24;41.91
63399;BME280;49533;-34.520;150.798;2023-05-25T06:56:06;100310.78;;;17.08;41.99
63399;BME280;49533;-34.520;150.798;2023-05-25T06:58:33;100308.91;;;17.12;42.38
63399;BME280;49533;-34.520;150.798;2023-05-25T07:01:00;100277.31;;;16.86;42.15
63399;BME280;49533;-34.520;150.798;2023-05-25T07:03:28;100308.03;;;17.08;42.34
63399;BME280;49533;-34.520;150.798;2023-05-25T07:05:55;100278.94;;;16.87;41.96
63399;BME280;49533;-34.520;150.798;2023-05-25T07:08:22;100348.72;;;17.37;42.09
63399;BME280;49533;-34.520;150.798;2023-05-25T07:10:49;100338.28;;;17.27;42.13
63399;BME280;49533;-34.520;150.798;2023-05-25T07:13:16;100345.53;;;17.35;42.44
63399;BME280;49533;-34.520;150.798;2023-05-25T07:15:44;100339.88;;;17.28;42.52
63399;BME280;49533;-34.520;150.798;2023-05-25T07:18:11;100295.66;;;16.82;42.43
63399;BME280;49533;-34.520;150.798;2023-05-25T07:20:39;100304.59;;;16.95;42.29
63399;BME280;49533;-34.520;150.798;2023-05-25T07:23:08;100298.72;;;16.97;42.48
63399;BME280;49533;-34.520;150.798;2023-05-25T07:25:37;100296.63;;;16.90;41.73
63399;BME280;49533;-34.520;150.798;2023-05-25T07:28:05;100206.00;;;16.39;41.87
63399;BME280;49533;-34.520;150.798;2023-05-25T07:30:32;100234.13;;;16.51;41.77
63399;BME280;49533;-34.520;150.798;2023-05-25T07:32:59;100335.56;;;17.11;41.93
63399;BME280;49533;-34.520;150.798;2023-05-25T07:35:27;100315.84;;;16.90;41.84
63399;BME280;49533;-34.520;150.798;2023-05-25T07:37:58;100367.63;;;17.23;41.56
63399;BME280;49533;-34.520;150.798;2023-05-25T07:40:26;100372.28;;;17.23;41.88
63399;BME280;49533;-34.520;150.798;2023-05-25T07:42:54;100359.81;;;17.09;41.75
63399;BME280;49533;-34.520;150.798;2023-05-25T07:45:21;100360.44;;;17.19;41.78
63399;BME280;49533;-34.520;150.798;2023-05-25T07:47:48;100325.38;;;16.96;41.69
63399;BME280;49533;-34.520;150.798;2023-05-25T07:50:15;100311.59;;;16.92;41.94
63399;BME280;49533;-34.520;150.798;2023-05-25T07:52:43;100371.03;;;17.20;42.07
63399;BME280;49533;-34.520;150.798;2023-05-25T07:55:10;100366.38;;;17.21;42.10
63399;BME280;49533;-34.520;150.798;2023-05-25T07:57:38;100319.91;;;16.80;42.49
63399;BME280;49533;-34.520;150.798;2023-05-25T08:00:05;100369.81;;;17.17;42.65
63399;BME280;49533;-34.520;150.798;2023-05-25T08:02:34;100357.59;;;17.15;42.49
63399;BME280;49533;-34.520;150.798;2023-05-25T08:05:01;100353.25;;;17.14;42.53
63399;BME280;49533;-34.520;150.798;2023-05-25T08:07:32;100361.94;;;17.16;42.34
63399;BME280;49533;-34.520;150.798;2023-05-25T08:10:00;100355.66;;;17.15;42.16
63399;BME280;49533;-34.520;150.798;2023-05-25T08:12:27;100362.28;;;17.14;42.09
63399;BME280;49533;-34.520;150.798;2023-05-25T08:14:55;100268.81;;;16.60;41.15
63399;BME280;49533;-34.520;150.798;2023-05-25T08:17:22;100319.00;;;16.92;41.62
63399;BME280;49533;-34.520;150.798;2023-05-25T08:19:49;100314.84;;;16.98;41.63
63399;BME280;49533;-34.520;150.798;2023-05-25T08:22:16;100347.06;;;17.17;41.76
63399;BME280;49533;-34.520;150.798;2023-05-25T08:24:43;100363.53;;;17.17;41.78
63399;BME280;49533;-34.520;150.798;2023-05-25T08:27:10;100359.03;;;17.09;41.96
63399;BME280;49533;-34.520;150.798;2023-05-25T08:29:38;100350.72;;;17.05;42.27
63399;BME280;49533;-34.520;150.798;2023-05-25T08:32:05;100270.84;;;16.63;42.23
63399;BME280;49533;-34.520;150.798;2023-05-25T08:34:32;100301.16;;;16.82;42.06
63399;BME280;49533;-34.520;150.798;2023-05-25T08:36:59;100316.25;;;17.08;41.83
63399;BME280;49533;-34.520;150.798;2023-05-25T08:39:26;100322.09;;;17.06;41.95
63399;BME280;49533;-34.520;150.798;2023-05-25T08:41:53;100338.38;;;16.99;42.10
63399;BME280;49533;-34.520;150.798;2023-05-25T08:44:21;100321.41;;;16.93;42.05
63399;BME280;49533;-34.520;150.798;2023-05-25T08:46:49;100325.19;;;17.05;41.84
63399;BME280;49533;-34.520;150.798;2023-05-25T08:49:16;100219.88;;;16.30;41.87
63399;BME280;49533;-34.520;150.798;2023-05-25T08:51:51;100328.31;;;17.03;41.68
63399;BME280;49533;-34.520;150.798;2023-05-25T08:54:23;100316.19;;;16.88;41.26
63399;BME280;49533;-34.520;150.798;2023-05-25T08:56:54;100347.59;;;17.07;40.94
63399;BME280;49533;-34.520;150.798;2023-05-25T08:59:37;100292.59;;;16.71;40.98
63399;BME280;49533;-34.520;150.798;2023-05-25T09:02:25;100264.03;;;16.57;40.83
63399;BME280;49533;-34.520;150.798;2023-05-25T09:04:53;100343.63;;;17.04;41.31
63399;BME280;49533;-34.520;150.798;2023-05-25T09:07:20;100335.38;;;17.04;41.43
63399;BME280;49533;-34.520;150.798;2023-05-25T09:09:48;100289.34;;;16.82;41.27
63399;BME280;49533;-34.520;150.798;2023-05-25T09:12:16;100305.19;;;16.88;41.17
63399;BME280;49533;-34.520;150.798;2023-05-25T09:14:44;100351.06;;;17.04;41.89
63399;BME280;49533;-34.520;150.798;2023-05-25T09:17:15;100344.66;;;17.00;42.05
63399;BME280;49533;-34.520;150.798;2023-05-25T09:19:44;100352.56;;;17.01;42.18
63399;BME280;49533;-34.520;150.798;2023-05-25T09:22:11;100335.03;;;16.90;42.42
63399;BME280;49533;-34.520;150.798;2023-05-25T09:24:39;100292.00;;;16.46;42.87
63399;BME280;49533;-34.520;150.798;2023-05-25T09:27:10;100337.88;;;16.93;42.74
63399;BME280;49533;-34.520;150.798;2023-05-25T09:29:37;100341.22;;;16.87;42.69
63399;BME280;49533;-34.520;150.798;2023-05-25T09:32:05;100297.56;;;16.66;42.67
63399;BME280;49533;-34.520;150.798;2023-05-25T09:34:33;100327.88;;;16.85;42.54
63399;BME280;49533;-34.520;150.798;2023-05-25T09:37:03;100346.09;;;16.93;42.45
63399;BME280;49533;-34.520;150.798;2023-05-25T09:39:30;100325.13;;;16.85;42.37
63399;BME280;49533;-34.520;150.798;2023-05-25T09:41:57;100297.47;;;16.62;42.12
63399;BME280;49533;-34.520;150.798;2023-05-25T09:44:25;100307.22;;;16.76;42.12
63399;BME280;49533;-34.520;150.798;2023-05-25T09:46:52;100263.41;;;16.47;42.46
63399;BME280;49533;-34.520;150.798;2023-05-25T09:49:20;100298.53;;;16.73;42.40
63399;BME280;49533;-34.520;150.798;2023-05-25T09:51:48;100330.63;;;16.85;42.13
63399;BME280;49533;-34.520;150.798;2023-05-25T09:54:36;100302.00;;;16.86;42.01
63399;BME280;49533;-34.520;150.798;2023-05-25T10:33:04;100246.16;;;16.79;42.73
63399;BME280;49533;-34.520;150.798;2023-05-25T10:39:18;100249.25;;;16.77;42.62
63399;BME280;49533;-34.520;150.798;2023-05-25T10:45:44;100244.22;;;16.47;42.63
63399;BME280;49533;-34.520;150.798;2023-05-25T10:55:41;100245.63;;;16.41;42.74
63399;BME280;49533;-34.520;150.798;2023-05-25T11:14:05;100251.84;;;16.54;43.06
63399;BME280;49533;-34.520;150.798;2023-05-25T11:26:20;100274.44;;;16.51;42.95
63399;BME280;49533;-34.520;150.798;2023-05-25T11:28:49;100254.47;;;16.50;42.86
63399;BME280;49533;-34.520;150.798;2023-05-25T11:31:19;100267.31;;;16.46;43.06
63399;BME280;49533;-34.520;150.798;2023-05-25T11:33:49;100180.31;;;15.83;42.80
63399;BME280;49533;-34.520;150.798;2023-05-25T11:36:23;100268.00;;;16.43;42.87
63399;BME280;49533;-34.520;150.798;2023-05-25T11:38:52;100197.81;;;15.95;43.02
63399;BME280;49533;-34.520;150.798;2023-05-25T11:41:20;100260.22;;;16.45;42.99
63399;BME280;49533;-34.520;150.798;2023-05-25T11:43:47;100256.34;;;16.46;42.94
63399;BME280;49533;-34.520;150.798;2023-05-25T11:46:17;100225.53;;;16.37;42.91
63399;BME280;49533;-34.520;150.798;2023-05-25T11:48:49;100209.69;;;16.30;43.03
63399;BME280;49533;-34.520;150.798;2023-05-25T11:51:23;100172.75;;;16.08;42.97
63399;BME280;49533;-34.520;150.798;2023-05-25T11:53:50;100208.19;;;16.33;42.97
63399;BME280;49533;-34.520;150.798;2023-05-25T11:56:19;100211.31;;;16.47;42.85
63399;BME280;49533;-34.520;150.798;2023-05-25T11:58:49;100206.25;;;16.49;42.71
63399;BME280;49533;-34.520;150.798;2023-05-25T12:01:18;100189.91;;;16.37;42.77
63399;BME280;49533;-34.520;150.798;2023-05-25T12:03:48;100139.84;;;16.08;42.72
63399;BME280;49533;-34.520;150.798;2023-05-25T12:06:28;100182.91;;;16.40;42.78
63399;BME280;49533;-34.520;150.798;2023-05-25T12:08:57;100150.09;;;16.12;42.70
63399;BME280;49533;-34.520;150.798;2023-05-25T12:11:34;100232.53;;;16.50;42.83
63399;BME280;49533;-34.520;150.798;2023-05-25T12:14:05;100171.84;;;16.20;42.74
63399;BME280;49533;-34.520;150.798;2023-05-25T12:16:34;100156.22;;;16.21;42.62
63399;BME280;49533;-34.520;150.798;2023-05-25T12:19:04;100173.63;;;16.28;42.91
63399;BME280;49533;-34.520;150.798;2023-05-25T12:21:33;100144.81;;;16.19;42.61
63399;BME280;49533;-34.520;150.798;2023-05-25T12:24:00;100196.44;;;16.48;42.65
63399;BME280;49533;-34.520;150.798;2023-05-25T12:26:28;100162.47;;;16.37;42.78
63399;BME280;49533;-34.520;150.798;2023-05-25T12:29:01;100107.50;;;15.98;42.74
63399;BME280;49533;-34.520;150.798;2023-05-25T12:31:32;100205.47;;;16.49;42.76
63399;BME280;49533;-34.520;150.798;2023-05-25T12:34:05;100140.91;;;16.04;42.59
63399;BME280;49533;-34.520;150.798;2023-05-25T12:36:40;100196.00;;;16.46;42.67
63399;BME280;49533;-34.520;150.798;2023-05-25T12:39:09;100172.22;;;16.35;42.67
63399;BME280;49533;-34.520;150.798;2023-05-25T12:41:43;100068.53;;;15.73;42.74
63399;BME280;49533;-34.520;150.798;2023-05-25T12:44:26;100157.72;;;16.34;42.57
63399;BME280;49533;-34.520;150.798;2023-05-25T12:47:15;100143.81;;;16.27;42.68
63399;BME280;49533;-34.520;150.798;2023-05-25T12:49:43;100172.41;;;16.42;42.80
63399;BME280;49533;-34.520;150.798;2023-05-25T12:54:56;100173.91;;;16.39;42.69
63399;BME280;49533;-34.520;150.798;2023-05-25T12:57:33;100184.06;;;16.39;42.75
63399;BME280;49533;-34.520;150.798;2023-05-25T13:00:01;100161.84;;;16.28;42.46
63399;BME280;49533;-34.520;150.798;2023-05-25T13:02:28;100117.31;;;15.99;42.52
63399;BME280;49533;-34.520;150.798;2023-05-25T13:04:55;100131.09;;;16.19;42.42
63399;BME280;49533;-34.520;150.798;2023-05-25T13:07:23;100170.00;;;16.40;42.63
63399;BME280;49533;-34.520;150.798;2023-05-25T13:09:51;100157.78;;;16.38;42.48
63399;BME280;49533;-34.520;150.798;2023-05-25T13:12:18;100140.09;;;16.35;42.51
63399;BME280;49533;-34.520;150.798;2023-05-25T13:14:45;100135.34;;;16.32;42.66
63399;BME280;49533;-34.520;150.798;2023-05-25T13:17:13;100140.81;;;16.32;42.58
63399;BME280;49533;-34.520;150.798;2023-05-25T13:19:40;100131.44;;;16.33;42.59
63399;BME280;49533;-34.520;150.798;2023-05-25T13:22:07;100136.91;;;16.33;42.63
63399;BME280;49533;-34.520;150.798;2023-05-25T13:24:34;100132.59;;;16.32;42.59
63399;BME280;49533;-34.520;150.798;2023-05-25T13:27:01;100103.25;;;16.17;42.53
63399;BME280;49533;-34.520;150.798;2023-05-25T13:29:28;100108.47;;;16.22;42.63
63399;BME280;49533;-34.520;150.798;2023-05-25T13:31:55;100126.41;;;16.19;42.43
63399;BME280;49533;-34.520;150.798;2023-05-25T13:34:23;100116.41;;;16.27;42.55
63399;BME280;49533;-34.520;150.798;2023-05-25T13:36:50;100112.44;;;16.24;42.62
63399;BME280;49533;-34.520;150.798;2023-05-25T13:39:17;100061.63;;;15.95;42.47
63399;BME280;49533;-34.520;150.798;2023-05-25T13:41:45;100083.03;;;16.05;42.66
63399;BME280;49533;-34.520;150.798;2023-05-25T13:44:13;100100.25;;;16.22;42.44
63399;BME280;49533;-34.520;150.798;2023-05-25T13:46:40;100093.97;;;16.21;42.58